createdAt,value
2022-12-12T00:01:41.632Z,3.15
2022-12-12T00:04:08.768Z,3.03
2022-12-12T00:06:36.061Z,3.00
2022-12-12T00:09:03.940Z,4.00
2022-12-12T00:11:31.877Z,3.17
2022-12-12T00:13:59.080Z,3.42
2022-12-12T00:16:26.413Z,3.10
2022-12-12T00:18:57.698Z,3.22
2022-12-12T00:21:28.587Z,3.83
2022-12-12T00:23:56.329Z,3.30
2022-12-12T00:26:32.963Z,3.50
2022-12-12T00:29:01.882Z,3.00
2022-12-12T00:31:30.045Z,3.45
2022-12-12T00:34:00.198Z,3.47
2022-12-12T00:36:33.768Z,3.47
2022-12-12T00:39:00.789Z,3.42
2022-12-12T00:41:28.565Z,3.00
2022-12-12T00:43:58.108Z,2.92
2022-12-12T00:46:26.533Z,3.03
2022-12-12T00:48:59.031Z,3.28
2022-12-12T00:51:29.249Z,3.20
2022-12-12T00:53:58.016Z,3.78
2022-12-12T00:56:26.534Z,3.78
2022-12-12T00:58:53.578Z,3.33
2022-12-12T01:01:26.877Z,3.30
2022-12-12T01:03:54.765Z,3.72
2022-12-12T01:06:23.439Z,3.90
2022-12-12T01:08:53.406Z,3.70
2022-12-12T01:11:21.613Z,3.58
2022-12-12T01:13:51.352Z,3.50
2022-12-12T01:16:18.755Z,3.63
2022-12-12T01:18:46.027Z,3.28
2022-12-12T01:21:19.215Z,3.45
2022-12-12T01:23:48.555Z,3.35
2022-12-12T01:26:21.565Z,3.65
2022-12-12T01:28:52.288Z,3.67
2022-12-12T01:31:21.573Z,3.88
2022-12-12T01:33:49.166Z,3.10
2022-12-12T01:36:23.992Z,3.38
2022-12-12T01:38:54.723Z,3.45
2022-12-12T01:41:22.005Z,3.63
2022-12-12T01:43:49.987Z,3.10
2022-12-12T01:46:44.398Z,3.58
2022-12-12T01:49:25.064Z,3.25
2022-12-12T01:51:58.853Z,3.40
2022-12-12T01:54:36.108Z,3.67
2022-12-12T01:57:13.941Z,3.63
2022-12-12T01:59:42.571Z,3.58
2022-12-12T02:02:10.492Z,3.33
2022-12-12T02:04:37.946Z,3.38
2022-12-12T02:07:05.578Z,3.58
2022-12-12T02:09:34.271Z,3.83
2022-12-12T02:12:04.788Z,3.50
2022-12-12T02:14:42.449Z,4.18
2022-12-12T02:17:33.608Z,3.05
2022-12-12T02:20:34.729Z,3.72
2022-12-12T02:23:26.596Z,3.47
2022-12-12T02:26:57.978Z,3.22
2022-12-12T02:30:08.337Z,3.05
2022-12-12T02:33:07.139Z,3.60
2022-12-12T02:36:01.631Z,3.63
2022-12-12T02:38:56.098Z,3.45
2022-12-12T02:41:39.682Z,3.38
2022-12-12T02:44:32.943Z,3.95
2022-12-12T02:47:18.633Z,3.33
2022-12-12T02:50:05.067Z,3.42
2022-12-12T02:52:35.678Z,3.22
2022-12-12T02:55:05.943Z,3.13
2022-12-12T02:57:35.520Z,3.72
2022-12-12T03:00:08.330Z,3.20
2022-12-12T03:03:27.504Z,3.42
2022-12-12T03:06:30.840Z,3.30
2022-12-12T03:09:39.717Z,3.38
2022-12-12T03:12:27.725Z,3.15
2022-12-12T03:15:16.246Z,3.20
2022-12-12T03:17:57.067Z,3.72
2022-12-12T03:20:37.333Z,3.90
2022-12-12T03:23:17.363Z,3.42
2022-12-12T03:26:18.831Z,3.38
2022-12-12T03:28:59.226Z,3.53
2022-12-12T03:31:32.248Z,3.50
2022-12-12T03:34:17.116Z,3.33
2022-12-12T03:36:57.248Z,3.22
2022-12-12T03:39:35.722Z,2.90
2022-12-12T03:42:15.697Z,3.22
2022-12-12T03:44:51.686Z,3.90
2022-12-12T03:47:50.575Z,3.20
2022-12-12T03:50:30.320Z,3.60
2022-12-12T03:53:06.077Z,3.40
2022-12-12T03:55:49.199Z,3.55
2022-12-12T03:58:51.493Z,3.70
2022-12-12T04:01:25.490Z,3.50
2022-12-12T04:04:23.191Z,3.50
2022-12-12T04:07:01.062Z,3.88
2022-12-12T04:09:48.681Z,3.67
2022-12-12T04:12:59.330Z,3.45
2022-12-12T04:15:48.266Z,3.33
2022-12-12T04:18:33.087Z,3.13
2022-12-12T04:21:53.986Z,3.35
2022-12-12T04:24:50.714Z,3.05
2022-12-12T04:27:35.437Z,3.13
2022-12-12T04:30:09.359Z,3.55
2022-12-12T04:32:58.100Z,3.45
2022-12-12T04:35:41.274Z,2.85
2022-12-12T04:38:21.785Z,3.72
2022-12-12T04:40:55.620Z,3.20
2022-12-12T04:43:47.803Z,3.53
2022-12-12T04:46:21.755Z,3.22
2022-12-12T04:48:56.550Z,3.53
2022-12-12T04:51:31.951Z,3.65
2022-12-12T04:54:33.098Z,3.25
2022-12-12T04:57:06.777Z,3.80
2022-12-12T04:59:34.665Z,2.72
2022-12-12T05:02:20.813Z,3.50
2022-12-12T05:05:02.764Z,3.63
2022-12-12T05:07:40.612Z,3.40
2022-12-12T05:10:16.324Z,3.20
2022-12-12T05:12:50.683Z,3.38
2022-12-12T05:15:20.898Z,3.05
2022-12-12T05:18:03.308Z,3.00
2022-12-12T05:20:30.669Z,3.15
2022-12-12T05:22:57.602Z,3.30
2022-12-12T05:25:24.664Z,2.95
2022-12-12T05:27:51.770Z,3.20
2022-12-12T05:30:19.192Z,3.45
2022-12-12T05:32:46.358Z,3.30
2022-12-12T05:35:13.654Z,3.25
2022-12-12T05:37:40.972Z,3.22
2022-12-12T05:40:09.062Z,3.13
2022-12-12T05:42:37.527Z,3.30
2022-12-12T05:45:06.610Z,3.03
2022-12-12T05:47:33.855Z,3.28
2022-12-12T05:50:01.031Z,3.30
2022-12-12T05:52:28.029Z,3.65
2022-12-12T05:54:55.051Z,3.38
2022-12-12T05:57:21.997Z,3.20
2022-12-12T05:59:48.948Z,3.58
2022-12-12T06:02:17.007Z,2.90
2022-12-12T06:04:46.412Z,3.75
2022-12-12T06:07:13.741Z,2.97
2022-12-12T06:09:41.144Z,3.63
2022-12-12T06:12:08.079Z,3.28
2022-12-12T06:14:35.151Z,3.13
2022-12-12T06:17:02.096Z,3.20
2022-12-12T06:19:29.244Z,3.45
2022-12-12T06:21:56.257Z,3.00
2022-12-12T06:24:24.469Z,3.38
2022-12-12T06:26:51.524Z,3.33
2022-12-12T06:29:18.543Z,3.28
2022-12-12T06:31:45.579Z,3.42
2022-12-12T06:34:15.254Z,3.15
2022-12-12T06:36:42.976Z,3.20
2022-12-12T06:39:10.086Z,3.03
2022-12-12T06:41:37.252Z,3.38
2022-12-12T06:44:05.160Z,3.13
2022-12-12T06:46:35.585Z,3.08
2022-12-12T06:49:09.590Z,3.17
2022-12-12T06:51:44.263Z,3.03
2022-12-12T06:54:13.819Z,2.90
2022-12-12T06:56:47.742Z,2.65
2022-12-12T06:59:16.478Z,3.15
2022-12-12T07:01:43.613Z,5.47
2022-12-12T07:04:12.974Z,2.70
2022-12-12T07:06:40.329Z,3.33
2022-12-12T07:09:08.417Z,3.42
2022-12-12T07:11:35.303Z,3.58
2022-12-12T07:14:05.552Z,4.40
2022-12-12T07:16:32.650Z,2.75
2022-12-12T07:18:59.994Z,3.08
2022-12-12T07:21:26.982Z,3.10
2022-12-12T07:23:54.134Z,2.70
2022-12-12T07:26:23.309Z,3.85
2022-12-12T07:28:51.772Z,4.72
2022-12-12T07:31:22.557Z,4.75
2022-12-12T07:33:49.659Z,3.97
2022-12-12T07:36:17.711Z,4.15
2022-12-12T07:38:44.949Z,3.42
2022-12-12T07:41:16.693Z,2.80
2022-12-12T07:43:46.025Z,3.08
2022-12-12T07:46:23.645Z,3.10
2022-12-12T07:48:52.549Z,3.28
2022-12-12T07:51:20.452Z,3.05
2022-12-12T07:53:47.834Z,2.97
2022-12-12T07:56:16.503Z,3.40
2022-12-12T07:58:43.984Z,2.88
2022-12-12T08:01:21.409Z,2.90
2022-12-12T08:03:49.895Z,3.28
2022-12-12T08:06:18.698Z,4.30
2022-12-12T08:08:47.646Z,4.65
2022-12-12T08:11:20.434Z,6.03
2022-12-12T08:13:50.564Z,5.43
2022-12-12T08:16:22.374Z,5.93
2022-12-12T08:18:50.186Z,6.57
2022-12-12T08:21:25.424Z,6.63
2022-12-12T08:23:57.360Z,5.10
2022-12-12T08:26:31.536Z,5.20
2022-12-12T08:29:01.658Z,7.30
2022-12-12T08:31:31.103Z,7.85
2022-12-12T08:34:00.146Z,5.30
2022-12-12T08:36:33.436Z,8.23
2022-12-12T08:39:08.007Z,6.72
2022-12-12T08:41:37.612Z,7.60
2022-12-12T08:44:04.901Z,7.10
2022-12-12T08:46:32.172Z,6.05
2022-12-12T08:48:59.239Z,7.78
2022-12-12T08:51:26.832Z,7.88
2022-12-12T08:53:54.160Z,8.40
2022-12-12T08:56:24.128Z,6.22
2022-12-12T08:58:52.405Z,11.18
2022-12-12T09:01:26.119Z,6.32
2022-12-12T09:03:55.979Z,5.38
2022-12-12T09:06:24.599Z,10.35
2022-12-12T09:08:57.636Z,5.22
2022-12-12T09:11:25.289Z,5.45
2022-12-12T09:13:55.717Z,12.13
2022-12-12T09:16:26.491Z,7.95
2022-12-12T09:18:53.678Z,8.38
2022-12-12T09:21:20.824Z,9.23
2022-12-12T09:23:48.745Z,5.07
2022-12-12T09:26:17.869Z,6.97
2022-12-12T09:28:45.700Z,7.57
2022-12-12T09:31:13.750Z,5.57
2022-12-12T09:33:42.934Z,8.13
2022-12-12T09:36:15.001Z,6.45
2022-12-12T09:38:42.702Z,5.60
2022-12-12T09:41:09.886Z,8.20
2022-12-12T09:44:07.564Z,5.93
2022-12-12T09:47:11.020Z,4.72
2022-12-12T09:49:48.402Z,4.22
2022-12-12T09:52:31.246Z,4.13
2022-12-12T09:55:03.733Z,4.80
2022-12-12T09:57:50.397Z,6.85
2022-12-12T10:00:19.905Z,8.07
2022-12-12T10:03:07.383Z,7.32
2022-12-12T10:06:36.663Z,8.18
2022-12-12T10:09:41.819Z,5.72
2022-12-12T10:12:15.549Z,6.00
2022-12-12T10:14:58.992Z,6.38
2022-12-12T10:17:48.597Z,8.02
2022-12-12T10:20:31.885Z,6.07
2022-12-12T10:23:25.069Z,4.28
2022-12-12T10:26:07.135Z,5.03
2022-12-12T10:28:35.829Z,4.55
2022-12-12T10:31:39.623Z,5.30
2022-12-12T10:34:34.794Z,4.03
2022-12-12T10:37:32.551Z,3.78
2022-12-12T10:40:41.964Z,4.70
2022-12-12T10:43:29.101Z,4.38
2022-12-12T10:46:43.526Z,4.60
2022-12-12T10:49:22.888Z,3.42
2022-12-12T10:51:51.854Z,3.70
2022-12-12T10:54:27.034Z,4.47
2022-12-12T10:57:09.040Z,3.65
2022-12-12T11:00:24.620Z,3.80
2022-12-12T11:02:56.755Z,3.33
2022-12-12T11:05:34.730Z,3.35
2022-12-12T11:08:19.004Z,3.25
2022-12-12T11:11:17.216Z,4.45
2022-12-12T11:13:55.961Z,3.10
2022-12-12T11:16:39.802Z,4.05
2022-12-12T11:19:23.975Z,3.88
2022-12-12T11:21:54.356Z,3.63
2022-12-12T11:24:48.144Z,4.40
2022-12-12T11:27:31.131Z,4.47
2022-12-12T11:30:08.138Z,4.43
2022-12-12T11:32:45.934Z,3.47
2022-12-12T11:35:55.674Z,4.50
2022-12-12T11:38:40.567Z,5.00
2022-12-12T11:41:12.695Z,5.60
2022-12-12T11:43:48.954Z,4.30
2022-12-12T11:46:15.909Z,3.30
2022-12-12T11:49:07.649Z,5.18
2022-12-12T11:51:36.659Z,2.95
2022-12-12T11:54:15.972Z,6.70
2022-12-12T11:57:06.122Z,3.72
2022-12-12T11:59:45.021Z,4.43
2022-12-12T12:02:45.396Z,2.97
2022-12-12T12:05:44.193Z,5.55
2022-12-12T12:08:24.823Z,3.75
2022-12-12T12:11:29.110Z,4.38
2022-12-12T12:14:17.460Z,3.53
2022-12-12T12:17:46.943Z,4.93
2022-12-12T12:20:57.617Z,4.88
2022-12-12T12:24:11.391Z,2.88
2022-12-12T12:27:13.487Z,5.53
2022-12-12T12:30:23.721Z,3.85
2022-12-12T12:33:09.195Z,5.03
2022-12-12T12:36:01.105Z,5.30
2022-12-12T12:39:04.603Z,6.93
2022-12-12T12:42:25.666Z,6.00
2022-12-12T12:45:09.281Z,6.20
2022-12-12T12:47:39.035Z,3.65
2022-12-12T12:50:39.711Z,4.30
2022-12-12T12:53:30.603Z,3.88
2022-12-12T12:56:05.417Z,3.35
2022-12-12T12:58:42.990Z,2.47
2022-12-12T13:01:23.630Z,3.47
2022-12-12T13:04:19.473Z,4.47
2022-12-12T13:07:27.204Z,3.65
2022-12-12T13:10:06.830Z,2.97
2022-12-12T13:12:49.389Z,2.28
2022-12-12T13:15:28.423Z,4.88
2022-12-12T13:18:04.438Z,2.47
2022-12-12T13:20:42.117Z,2.97
2022-12-12T13:23:47.335Z,3.50
2022-12-12T13:26:59.156Z,3.42
2022-12-12T13:29:53.851Z,3.03
2022-12-12T13:32:37.225Z,2.42
2022-12-12T13:35:13.478Z,2.05
2022-12-12T13:37:53.878Z,2.28
2022-12-12T13:40:37.298Z,2.30
2022-12-12T13:43:10.208Z,3.33
2022-12-12T13:45:45.724Z,2.42
2022-12-12T13:48:28.023Z,2.40
2022-12-12T13:51:31.019Z,3.50
2022-12-12T13:54:12.112Z,2.20
2022-12-12T13:56:46.039Z,2.47
2022-12-12T13:59:22.172Z,2.22
2022-12-12T14:02:01.375Z,3.15
2022-12-12T14:04:40.006Z,3.58
2022-12-12T14:07:13.199Z,5.05
2022-12-12T14:09:50.118Z,2.63
2022-12-12T14:12:32.160Z,4.10
2022-12-12T14:15:21.794Z,2.85
2022-12-12T14:18:07.156Z,2.45
2022-12-12T14:20:40.483Z,2.20
2022-12-12T14:23:24.423Z,3.75
2022-12-12T14:25:52.019Z,2.00
2022-12-12T14:28:33.695Z,2.20
2022-12-12T14:31:34.942Z,4.82
2022-12-12T14:34:34.504Z,1.98
2022-12-12T14:37:36.007Z,2.35
2022-12-12T14:40:37.532Z,1.75
2022-12-12T14:43:24.761Z,2.38
2022-12-12T14:45:53.121Z,1.92
2022-12-12T14:48:36.782Z,3.53
2022-12-12T14:51:27.538Z,2.40
2022-12-12T14:54:01.384Z,2.13
2022-12-12T14:56:40.338Z,1.80
2022-12-12T14:59:24.699Z,3.75
2022-12-12T15:02:11.309Z,2.10
2022-12-12T15:04:40.310Z,1.75
2022-12-12T15:07:38.277Z,1.73
2022-12-12T15:10:24.956Z,2.33
2022-12-12T15:12:52.009Z,1.85
2022-12-12T15:15:33.777Z,1.70
2022-12-12T15:18:01.941Z,3.10
2022-12-12T15:20:32.136Z,2.50
2022-12-12T15:23:02.277Z,3.25
2022-12-12T15:25:47.937Z,3.60
2022-12-12T15:28:21.757Z,2.55
2022-12-12T15:30:55.235Z,2.13
2022-12-12T15:33:27.575Z,2.17
2022-12-12T15:36:02.256Z,2.38
2022-12-12T15:38:31.145Z,2.85
2022-12-12T15:41:01.801Z,2.53
2022-12-12T15:43:31.797Z,3.95
2022-12-12T15:46:06.816Z,6.45
2022-12-12T15:48:34.572Z,8.13
2022-12-12T15:51:07.380Z,7.82
2022-12-12T15:53:46.168Z,8.55
2022-12-12T15:56:27.835Z,10.68
2022-12-12T15:59:10.106Z,6.25
2022-12-12T16:01:37.727Z,7.10
2022-12-12T16:04:22.428Z,6.47
2022-12-12T16:06:50.241Z,5.50
2022-12-12T16:09:24.116Z,4.68
2022-12-12T16:11:56.467Z,4.97
2022-12-12T16:14:42.750Z,4.35
2022-12-12T16:17:22.278Z,6.22
2022-12-12T16:20:02.359Z,4.97
2022-12-12T16:22:45.693Z,6.55
2022-12-12T16:25:32.789Z,5.93
2022-12-12T16:28:10.054Z,4.97
2022-12-12T16:30:41.604Z,5.22
2022-12-12T16:33:37.221Z,6.78
2022-12-12T16:36:13.176Z,3.75
2022-12-12T16:38:41.193Z,6.15
2022-12-12T16:41:15.510Z,5.85
2022-12-12T16:43:42.733Z,4.07
2022-12-12T16:46:23.149Z,4.63
2022-12-12T16:48:51.111Z,4.35
2022-12-12T16:51:28.859Z,4.55
2022-12-12T16:53:56.713Z,6.53
2022-12-12T16:56:24.854Z,5.38
2022-12-12T16:58:53.480Z,4.00
2022-12-12T17:01:21.216Z,7.32
2022-12-12T17:03:48.467Z,5.80
2022-12-12T17:06:15.556Z,4.10
2022-12-12T17:08:42.593Z,3.60
2022-12-12T17:11:12.242Z,3.80
2022-12-12T17:13:48.857Z,3.28
2022-12-12T17:16:16.348Z,3.53
2022-12-12T17:18:43.448Z,3.70
2022-12-12T17:21:10.844Z,3.17
2022-12-12T17:23:40.946Z,3.88
2022-12-12T17:26:08.290Z,4.15
2022-12-12T17:28:35.578Z,5.97
2022-12-12T17:31:07.908Z,6.32
2022-12-12T17:33:35.809Z,3.40
2022-12-12T17:36:06.854Z,4.07
2022-12-12T17:38:34.808Z,3.05
2022-12-12T17:41:10.783Z,5.10
2022-12-12T17:43:38.798Z,4.57
2022-12-12T17:46:14.064Z,3.20
2022-12-12T17:48:48.905Z,3.25
2022-12-12T17:51:23.873Z,3.05
2022-12-12T17:53:52.836Z,3.38
2022-12-12T17:56:24.674Z,4.47
2022-12-12T17:58:54.558Z,4.25
2022-12-12T18:01:23.993Z,2.92
2022-12-12T18:03:51.811Z,3.78
2022-12-12T18:06:22.340Z,3.35
2022-12-12T18:08:50.256Z,2.80
2022-12-12T18:11:24.635Z,3.78
2022-12-12T18:13:53.894Z,3.28
2022-12-12T18:16:23.869Z,3.17
2022-12-12T18:18:52.234Z,3.30
2022-12-12T18:21:51.711Z,4.65
2022-12-12T18:24:14.176Z,4.47
2022-12-12T18:26:41.667Z,3.50
2022-12-12T18:29:12.377Z,3.47
2022-12-12T18:31:40.671Z,4.65
2022-12-12T18:34:08.257Z,3.38
2022-12-12T18:36:35.575Z,3.08
2022-12-12T18:39:05.782Z,3.38
2022-12-12T18:41:38.353Z,3.33
2022-12-12T18:44:12.850Z,4.03
2022-12-12T18:46:43.336Z,4.45
2022-12-12T18:49:15.105Z,3.05
2022-12-12T18:51:46.267Z,2.53
2022-12-12T18:54:16.212Z,3.10
2022-12-12T18:56:47.586Z,2.95
2022-12-12T18:59:16.729Z,2.83
2022-12-12T19:01:44.774Z,2.75
2022-12-12T19:04:19.051Z,3.40
2022-12-12T19:06:48.186Z,3.47
2022-12-12T19:09:18.658Z,3.33
2022-12-12T19:11:47.500Z,3.03
2022-12-12T19:14:17.148Z,3.22
2022-12-12T19:16:45.730Z,3.78
2022-12-12T19:19:13.800Z,2.92
2022-12-12T19:21:43.901Z,3.22
2022-12-12T19:24:14.869Z,3.47
2022-12-12T19:26:44.426Z,2.95
2022-12-12T19:29:15.922Z,2.70
2022-12-12T19:31:44.118Z,2.70
2022-12-12T19:34:14.216Z,2.88
2022-12-12T19:36:42.076Z,3.20
2022-12-12T19:39:11.959Z,3.13
2022-12-12T19:41:39.513Z,3.30
2022-12-12T19:44:09.020Z,3.00
2022-12-12T19:46:36.288Z,2.67
2022-12-12T19:49:08.643Z,3.20
2022-12-12T19:51:39.531Z,2.45
2022-12-12T19:54:17.177Z,2.88
2022-12-12T19:56:45.107Z,2.38
2022-12-12T19:59:16.623Z,2.80
2022-12-12T20:01:44.760Z,3.35
2022-12-12T20:04:22.778Z,2.75
2022-12-12T20:06:50.860Z,3.08
2022-12-12T20:09:28.474Z,2.95
2022-12-12T20:12:00.439Z,2.70
2022-12-12T20:14:31.951Z,2.70
2022-12-12T20:17:00.139Z,2.78
2022-12-12T20:19:27.902Z,3.00
2022-12-12T20:22:01.173Z,3.17
2022-12-12T20:24:29.700Z,3.00
2022-12-12T20:27:00.354Z,3.05
2022-12-12T20:29:28.112Z,2.50
2022-12-12T20:31:55.185Z,2.88
2022-12-12T20:34:24.843Z,3.17
2022-12-12T20:36:55.656Z,2.63
2022-12-12T20:39:25.200Z,3.00
2022-12-12T20:41:53.861Z,2.60
2022-12-12T20:44:23.458Z,3.03
2022-12-12T20:46:50.764Z,3.03
2022-12-12T20:49:22.379Z,3.22
2022-12-12T20:51:57.978Z,2.63
2022-12-12T20:54:32.100Z,3.25
2022-12-12T20:56:59.184Z,3.00
2022-12-12T20:59:27.069Z,3.05
2022-12-12T21:01:54.564Z,2.97
2022-12-12T21:04:22.417Z,2.97
2022-12-12T21:06:52.317Z,3.00
2022-12-12T21:09:25.954Z,2.72
2022-12-12T21:11:57.889Z,3.03
2022-12-12T21:14:27.762Z,2.88
2022-12-12T21:16:55.634Z,2.75
2022-12-12T21:19:23.889Z,2.85
2022-12-12T21:21:51.764Z,2.75
2022-12-12T21:24:19.204Z,3.10
2022-12-12T21:26:47.381Z,3.13
2022-12-12T21:29:15.401Z,2.53
2022-12-12T21:31:50.231Z,3.30
2022-12-12T21:34:20.970Z,2.80
2022-12-12T21:36:52.269Z,3.00
2022-12-12T21:39:22.128Z,2.88
2022-12-12T21:41:49.518Z,3.03
2022-12-12T21:44:16.518Z,3.17
2022-12-12T21:46:44.238Z,3.28
2022-12-12T21:49:26.453Z,3.00
2022-12-12T21:51:57.518Z,3.40
2022-12-12T21:54:26.155Z,3.20
2022-12-12T21:56:53.530Z,3.13
2022-12-12T21:59:20.656Z,3.92
2022-12-12T22:01:47.732Z,3.15
2022-12-12T22:04:14.846Z,3.30
2022-12-12T22:06:44.747Z,3.30
2022-12-12T22:09:13.248Z,2.70
2022-12-12T22:11:49.149Z,3.30
2022-12-12T22:14:21.264Z,2.92
2022-12-12T22:16:48.894Z,3.05
2022-12-12T22:19:16.966Z,3.30
2022-12-12T22:21:47.244Z,2.63
2022-12-12T22:24:16.159Z,3.33
2022-12-12T22:26:46.921Z,3.22
2022-12-12T22:29:17.797Z,3.33
2022-12-12T22:31:46.100Z,3.70
2022-12-12T22:34:23.626Z,3.08
2022-12-12T22:36:52.225Z,3.65
2022-12-12T22:39:23.583Z,3.13
2022-12-12T22:41:51.197Z,3.13
2022-12-12T22:44:21.389Z,3.60
2022-12-12T22:46:51.094Z,3.28
2022-12-12T22:49:25.897Z,3.13
2022-12-12T22:51:56.265Z,2.95
2022-12-12T22:54:23.532Z,3.10
2022-12-12T22:56:50.638Z,3.10
2022-12-12T22:59:17.606Z,3.35
2022-12-12T23:01:44.537Z,2.92
2022-12-12T23:04:15.047Z,3.28
2022-12-12T23:06:43.473Z,3.15
2022-12-12T23:09:20.537Z,2.80
2022-12-12T23:11:47.567Z,3.20
2022-12-12T23:14:21.460Z,3.15
2022-12-12T23:16:50.833Z,3.00
2022-12-12T23:19:23.555Z,3.08
2022-12-12T23:21:50.478Z,3.40
2022-12-12T23:24:18.009Z,3.50
2022-12-12T23:26:45.475Z,3.65
2022-12-12T23:29:16.774Z,3.22
2022-12-12T23:31:44.412Z,3.30
2022-12-12T23:34:23.099Z,3.03
2022-12-12T23:36:53.757Z,3.38
2022-12-12T23:39:23.072Z,3.10
2022-12-12T23:41:50.167Z,3.47
2022-12-12T23:44:20.085Z,3.10
2022-12-12T23:46:47.504Z,3.00
2022-12-12T23:49:24.622Z,3.25
2022-12-12T23:51:56.212Z,3.30
2022-12-12T23:54:28.058Z,3.00
2022-12-12T23:56:56.074Z,3.50
2022-12-12T23:59:22.967Z,2.88
